createdAt,value
2023-02-27T00:00:33.787Z,0.80
2023-02-27T00:03:21.593Z,4.90
2023-02-27T00:05:49.292Z,10.10
2023-02-27T00:08:16.975Z,10.80
2023-02-27T00:10:44.898Z,6.70
2023-02-27T00:13:12.653Z,8.20
2023-02-27T00:15:41.061Z,4.80
2023-02-27T00:18:08.869Z,3.00
2023-02-27T00:20:38.381Z,1.80
2023-02-27T00:23:06.889Z,3.90
2023-02-27T00:25:35.507Z,3.40
2023-02-27T00:28:04.405Z,4.60
2023-02-27T00:30:32.184Z,3.40
2023-02-27T00:33:00.038Z,2.70
2023-02-27T00:35:28.119Z,1.60
2023-02-27T00:37:56.053Z,1.00
2023-02-27T00:40:25.549Z,1.00
2023-02-27T00:42:53.830Z,0.80
2023-02-27T00:45:21.723Z,0.90
2023-02-27T00:47:49.450Z,1.10
2023-02-27T00:50:17.340Z,1.50
2023-02-27T00:52:45.132Z,1.20
2023-02-27T00:55:13.176Z,1.30
2023-02-27T00:57:41.282Z,1.20
2023-02-27T01:00:10.661Z,1.00
2023-02-27T01:02:39.052Z,1.50
2023-02-27T01:05:07.455Z,1.50
2023-02-27T01:07:35.160Z,1.20
2023-02-27T01:10:05.089Z,2.80
2023-02-27T01:12:33.113Z,1.20
2023-02-27T01:15:00.780Z,1.00
2023-02-27T01:17:28.604Z,1.50
2023-02-27T01:19:56.300Z,2.20
2023-02-27T01:22:24.628Z,6.20
2023-02-27T01:24:52.434Z,6.20
2023-02-27T01:27:20.073Z,5.00
2023-02-27T01:29:47.753Z,5.50
2023-02-27T01:32:15.470Z,4.00
2023-02-27T01:34:43.292Z,6.40
2023-02-27T01:37:11.091Z,3.70
2023-02-27T01:39:38.888Z,6.90
2023-02-27T01:42:20.877Z,9.10
2023-02-27T01:45:21.087Z,6.20
2023-02-27T01:47:56.351Z,3.50
2023-02-27T01:50:25.443Z,4.20
2023-02-27T01:52:59.871Z,2.70
2023-02-27T01:55:33.492Z,1.80
2023-02-27T01:58:01.328Z,2.50
2023-02-27T02:00:29.035Z,1.60
2023-02-27T02:03:14.248Z,1.80
2023-02-27T02:05:44.817Z,1.50
2023-02-27T02:08:18.519Z,1.60
2023-02-27T02:10:50.284Z,1.00
2023-02-27T02:13:22.591Z,1.90
2023-02-27T02:16:35.717Z,2.10
2023-02-27T02:19:30.347Z,2.60
2023-02-27T02:22:36.740Z,1.50
2023-02-27T02:25:47.644Z,2.50
2023-02-27T02:28:37.380Z,3.60
2023-02-27T02:31:57.504Z,3.30
2023-02-27T02:34:31.119Z,2.70
2023-02-27T02:38:02.648Z,2.40
2023-02-27T02:40:55.856Z,3.40
2023-02-27T02:44:02.317Z,2.00
2023-02-27T02:47:00.330Z,1.70
2023-02-27T02:49:57.567Z,2.10
2023-02-27T02:52:56.164Z,1.50
2023-02-27T02:55:54.986Z,2.50
2023-02-27T02:58:33.463Z,1.60
2023-02-27T03:01:26.636Z,2.40
2023-02-27T03:04:07.022Z,6.10
2023-02-27T03:06:43.276Z,6.40
2023-02-27T03:09:29.730Z,7.60
2023-02-27T03:12:01.078Z,9.30
2023-02-27T03:14:44.723Z,9.60
2023-02-27T03:17:29.528Z,10.00
2023-02-27T03:20:04.429Z,8.80
2023-02-27T03:22:40.079Z,25.70
2023-02-27T03:25:14.288Z,10.90
2023-02-27T03:28:09.436Z,10.90
2023-02-27T03:30:45.383Z,4.30
2023-02-27T03:33:31.247Z,2.50
2023-02-27T03:36:13.019Z,1.90
2023-02-27T03:38:51.300Z,1.40
2023-02-27T03:41:50.167Z,1.70
2023-02-27T03:44:49.212Z,1.60
2023-02-27T03:47:17.589Z,1.50
2023-02-27T03:49:45.422Z,3.20
2023-02-27T03:52:13.158Z,2.20
2023-02-27T03:54:53.395Z,2.70
2023-02-27T03:57:21.399Z,2.60
2023-02-27T03:59:49.822Z,2.60
2023-02-27T04:02:17.744Z,2.70
2023-02-27T04:04:45.599Z,2.80
2023-02-27T04:07:47.697Z,2.00
2023-02-27T04:10:39.874Z,1.40
2023-02-27T04:13:29.955Z,1.50
2023-02-27T04:16:35.909Z,1.50
2023-02-27T04:19:37.658Z,1.30
2023-02-27T04:22:35.082Z,1.50
2023-02-27T04:25:34.747Z,2.50
2023-02-27T04:28:08.439Z,2.50
2023-02-27T04:30:54.215Z,2.20
2023-02-27T04:33:33.875Z,1.90
2023-02-27T04:36:33.133Z,1.30
2023-02-27T04:39:18.165Z,1.90
2023-02-27T04:42:00.953Z,1.80
2023-02-27T04:44:33.389Z,1.60
2023-02-27T04:47:05.652Z,4.00
2023-02-27T04:49:42.355Z,2.80
2023-02-27T04:52:30.030Z,9.60
2023-02-27T04:55:24.339Z,3.40
2023-02-27T04:58:03.004Z,2.80
2023-02-27T05:00:35.132Z,6.10
2023-02-27T05:03:14.384Z,3.60
2023-02-27T05:05:46.234Z,3.40
2023-02-27T05:08:46.773Z,2.50
2023-02-27T05:11:28.789Z,2.80
2023-02-27T05:14:42.555Z,2.50
2023-02-27T05:17:20.962Z,2.30
2023-02-27T05:19:49.685Z,2.10
2023-02-27T05:22:45.294Z,3.10
2023-02-27T05:25:26.950Z,2.50
2023-02-27T05:28:04.956Z,6.10
2023-02-27T05:30:57.483Z,4.90
2023-02-27T05:33:35.507Z,3.90
2023-02-27T05:36:10.596Z,5.40
2023-02-27T05:38:49.683Z,5.50
2023-02-27T05:41:29.928Z,4.10
2023-02-27T05:44:22.808Z,4.90
2023-02-27T05:47:08.151Z,3.50
2023-02-27T05:49:45.730Z,3.60
2023-02-27T05:52:21.840Z,3.20
2023-02-27T05:55:06.748Z,3.00
2023-02-27T05:57:45.546Z,4.20
2023-02-27T06:00:49.401Z,6.20
2023-02-27T06:03:18.037Z,5.90
2023-02-27T06:05:47.290Z,5.50
2023-02-27T06:08:16.278Z,7.20
2023-02-27T06:10:43.970Z,8.70
2023-02-27T06:13:12.036Z,5.70
2023-02-27T06:15:39.717Z,4.50
2023-02-27T06:18:07.348Z,4.90
2023-02-27T06:20:35.086Z,5.10
2023-02-27T06:23:02.881Z,5.20
2023-02-27T06:25:31.258Z,8.50
2023-02-27T06:27:59.160Z,10.90
2023-02-27T06:30:27.372Z,7.00
2023-02-27T06:32:55.386Z,8.70
2023-02-27T06:35:23.908Z,7.00
2023-02-27T06:37:51.623Z,14.30
2023-02-27T06:40:19.371Z,8.10
2023-02-27T06:42:47.150Z,10.90
2023-02-27T06:45:16.554Z,9.70
2023-02-27T06:47:44.593Z,13.40
2023-02-27T06:50:14.326Z,13.70
2023-02-27T06:52:42.186Z,9.60
2023-02-27T06:55:11.260Z,7.80
2023-02-27T06:57:39.262Z,4.50
2023-02-27T07:00:08.263Z,8.40
2023-02-27T07:02:35.934Z,7.00
2023-02-27T07:05:08.240Z,7.70
2023-02-27T07:07:38.743Z,7.70
2023-02-27T07:10:13.480Z,13.50
2023-02-27T07:12:42.107Z,7.30
2023-02-27T07:15:11.247Z,9.20
2023-02-27T07:17:39.480Z,8.40
2023-02-27T07:20:10.668Z,7.40
2023-02-27T07:22:40.970Z,8.50
2023-02-27T07:25:09.726Z,5.70
2023-02-27T07:27:37.883Z,6.90
2023-02-27T07:30:06.923Z,10.90
2023-02-27T07:32:34.985Z,8.70
2023-02-27T07:35:04.059Z,7.20
2023-02-27T07:37:32.010Z,6.40
2023-02-27T07:39:59.890Z,6.20
2023-02-27T07:42:27.704Z,7.10
2023-02-27T07:44:55.433Z,7.70
2023-02-27T07:47:23.773Z,7.00
2023-02-27T07:49:52.599Z,7.20
2023-02-27T07:52:20.472Z,6.20
2023-02-27T07:54:48.280Z,6.10
2023-02-27T07:57:16.044Z,5.90
2023-02-27T07:59:43.943Z,5.30
2023-02-27T08:02:12.599Z,10.20
2023-02-27T08:04:40.409Z,11.30
2023-02-27T08:07:08.280Z,12.90
2023-02-27T08:09:36.621Z,23.00
2023-02-27T08:12:06.584Z,21.40
2023-02-27T08:14:34.466Z,11.70
2023-02-27T08:17:02.237Z,7.10
2023-02-27T08:19:30.082Z,7.50
2023-02-27T08:21:57.840Z,8.00
2023-02-27T08:24:25.776Z,9.10
2023-02-27T08:26:53.465Z,11.40
2023-02-27T08:29:21.377Z,10.10
2023-02-27T08:31:49.382Z,11.70
2023-02-27T08:34:17.400Z,12.50
2023-02-27T08:36:45.627Z,7.90
2023-02-27T08:39:13.500Z,8.30
2023-02-27T08:41:41.922Z,6.90
2023-02-27T08:44:13.022Z,11.90
2023-02-27T08:46:40.739Z,7.50
2023-02-27T08:49:08.544Z,8.50
2023-02-27T08:51:36.168Z,8.80
2023-02-27T08:54:04.533Z,6.30
2023-02-27T08:56:34.500Z,8.70
2023-02-27T08:59:02.835Z,7.50
2023-02-27T09:01:34.506Z,5.90
2023-02-27T09:04:05.525Z,5.90
2023-02-27T09:06:36.547Z,4.70
2023-02-27T09:09:05.706Z,4.60
2023-02-27T09:11:33.719Z,4.80
2023-02-27T09:14:01.452Z,4.00
2023-02-27T09:16:29.460Z,4.30
2023-02-27T09:18:57.646Z,5.10
2023-02-27T09:21:25.532Z,7.00
2023-02-27T09:23:53.356Z,6.30
2023-02-27T09:26:28.942Z,8.10
2023-02-27T09:29:03.976Z,8.30
2023-02-27T09:31:33.409Z,7.30
2023-02-27T09:34:01.697Z,13.80
2023-02-27T09:36:29.704Z,5.80
2023-02-27T09:38:59.517Z,4.90
2023-02-27T09:42:28.678Z,18.10
2023-02-27T09:45:05.474Z,5.30
2023-02-27T09:47:50.464Z,3.60
2023-02-27T09:50:31.865Z,2.90
2023-02-27T09:53:00.938Z,5.40
2023-02-27T09:55:36.723Z,5.20
2023-02-27T09:58:34.866Z,6.30
2023-02-27T10:01:30.494Z,5.20
2023-02-27T10:04:25.436Z,5.60
2023-02-27T10:07:13.956Z,4.70
2023-02-27T10:10:04.928Z,2.70
2023-02-27T10:13:07.930Z,3.50
2023-02-27T10:15:46.948Z,3.40
2023-02-27T10:18:29.047Z,3.20
2023-02-27T10:21:07.572Z,3.90
2023-02-27T10:23:56.687Z,2.60
2023-02-27T10:26:30.356Z,4.30
2023-02-27T10:29:10.723Z,4.30
2023-02-27T10:31:38.965Z,2.70
2023-02-27T10:34:12.917Z,3.50
2023-02-27T10:36:41.085Z,3.40
2023-02-27T10:39:16.900Z,3.10
2023-02-27T10:41:46.791Z,3.50
2023-02-27T10:44:18.817Z,2.70
2023-02-27T10:46:50.607Z,2.90
2023-02-27T10:49:22.061Z,3.20
2023-02-27T10:52:11.379Z,4.80
2023-02-27T10:54:41.859Z,4.60
2023-02-27T10:57:42.304Z,3.90
2023-02-27T11:00:55.409Z,5.00
2023-02-27T11:03:41.129Z,3.70
2023-02-27T11:06:23.816Z,2.30
2023-02-27T11:09:21.224Z,2.60
2023-02-27T11:11:53.480Z,3.30
2023-02-27T11:14:33.761Z,1.60
2023-02-27T11:17:03.359Z,2.90
2023-02-27T11:19:40.139Z,2.00
2023-02-27T11:22:21.309Z,3.40
2023-02-27T11:24:49.789Z,4.70
2023-02-27T11:27:29.296Z,3.80
2023-02-27T11:30:06.659Z,2.10
2023-02-27T11:32:45.855Z,3.30
2023-02-27T11:35:36.919Z,2.80
2023-02-27T11:38:16.978Z,2.30
2023-02-27T11:40:55.553Z,2.60
2023-02-27T11:43:49.695Z,2.80
2023-02-27T11:46:36.468Z,1.50
2023-02-27T11:49:37.393Z,2.00
2023-02-27T11:52:27.145Z,2.00
2023-02-27T11:55:00.747Z,2.80
2023-02-27T11:57:38.509Z,1.90
2023-02-27T12:00:33.066Z,1.80
2023-02-27T12:03:26.096Z,1.90
2023-02-27T12:05:59.963Z,3.30
2023-02-27T12:08:44.293Z,2.00
2023-02-27T12:11:32.891Z,3.10
2023-02-27T12:14:23.628Z,1.80
2023-02-27T12:17:01.671Z,2.90
2023-02-27T12:19:37.673Z,2.10
2023-02-27T12:22:35.685Z,2.00
2023-02-27T12:25:29.689Z,6.60
2023-02-27T12:28:54.842Z,4.10
2023-02-27T12:31:39.805Z,3.60
2023-02-27T12:34:16.183Z,3.50
2023-02-27T12:36:44.683Z,2.80
2023-02-27T12:39:23.250Z,2.50
2023-02-27T12:42:28.684Z,2.60
2023-02-27T12:45:11.119Z,2.90
2023-02-27T12:48:21.148Z,3.00
2023-02-27T12:51:46.240Z,2.20
2023-02-27T12:54:51.475Z,3.60
2023-02-27T12:57:44.971Z,3.70
2023-02-27T13:00:29.066Z,2.10
2023-02-27T13:03:09.976Z,2.10
2023-02-27T13:06:07.593Z,2.20
2023-02-27T13:08:57.004Z,2.30
2023-02-27T13:12:21.590Z,2.20
2023-02-27T13:15:06.297Z,2.80
2023-02-27T13:17:49.434Z,2.50
2023-02-27T13:20:49.991Z,2.80
2023-02-27T13:23:37.810Z,2.40
2023-02-27T13:26:20.768Z,2.30
2023-02-27T13:28:50.820Z,2.80
2023-02-27T13:31:42.634Z,3.50
2023-02-27T13:34:30.514Z,2.30
2023-02-27T13:37:05.559Z,2.10
2023-02-27T13:39:45.957Z,3.10
2023-02-27T13:42:33.977Z,3.40
2023-02-27T13:45:45.016Z,2.80
2023-02-27T13:48:43.736Z,3.30
2023-02-27T13:51:38.446Z,2.10
2023-02-27T13:54:15.386Z,1.30
2023-02-27T13:56:57.583Z,2.40
2023-02-27T13:59:33.350Z,2.10
2023-02-27T14:02:31.021Z,2.10
2023-02-27T14:05:03.834Z,2.40
2023-02-27T14:08:05.371Z,2.00
2023-02-27T14:10:37.420Z,2.20
2023-02-27T14:13:45.018Z,2.90
2023-02-27T14:16:39.799Z,1.30
2023-02-27T14:19:17.350Z,1.40
2023-02-27T14:21:51.222Z,2.20
2023-02-27T14:24:26.237Z,3.80
2023-02-27T14:26:55.003Z,2.70
2023-02-27T14:29:33.395Z,2.90
2023-02-27T14:32:08.869Z,4.70
2023-02-27T14:34:40.721Z,4.10
2023-02-27T14:37:17.997Z,3.40
2023-02-27T14:39:50.832Z,2.00
2023-02-27T14:42:44.297Z,2.60
2023-02-27T14:45:24.288Z,1.70
2023-02-27T14:47:53.226Z,2.20
2023-02-27T14:50:29.812Z,3.00
2023-02-27T14:52:57.960Z,2.30
2023-02-27T14:55:32.716Z,2.00
2023-02-27T14:58:21.796Z,2.70
2023-02-27T15:00:55.764Z,1.60
2023-02-27T15:03:35.716Z,2.20
2023-02-27T15:06:14.342Z,2.60
2023-02-27T15:08:48.746Z,2.80
2023-02-27T15:11:22.242Z,2.70
2023-02-27T15:14:02.064Z,3.20
2023-02-27T15:16:37.308Z,2.40
2023-02-27T15:19:28.194Z,3.50
2023-02-27T15:22:00.403Z,2.50
2023-02-27T15:24:49.807Z,1.90
2023-02-27T15:27:22.873Z,2.60
2023-02-27T15:29:58.095Z,2.10
2023-02-27T15:32:30.278Z,2.60
2023-02-27T15:35:03.661Z,2.50
2023-02-27T15:37:34.432Z,2.80
2023-02-27T15:40:02.565Z,4.70
2023-02-27T15:42:36.440Z,4.90
2023-02-27T15:45:06.879Z,4.40
2023-02-27T15:47:35.989Z,4.50
2023-02-27T15:50:15.793Z,5.60
2023-02-27T15:53:10.221Z,3.40
2023-02-27T15:55:46.826Z,3.70
2023-02-27T15:58:28.507Z,4.10
2023-02-27T16:01:13.952Z,3.00
2023-02-27T16:03:47.737Z,2.00
2023-02-27T16:06:25.074Z,3.50
2023-02-27T16:08:57.786Z,3.70
2023-02-27T16:11:29.801Z,3.10
2023-02-27T16:13:58.350Z,3.60
2023-02-27T16:16:32.605Z,2.70
2023-02-27T16:19:26.249Z,3.00
2023-02-27T16:22:13.273Z,3.10
2023-02-27T16:24:42.956Z,2.10
2023-02-27T16:27:24.625Z,3.70
2023-02-27T16:29:56.214Z,3.40
2023-02-27T16:32:26.393Z,3.30
2023-02-27T16:35:19.121Z,3.80
2023-02-27T16:37:49.341Z,2.90
2023-02-27T16:40:24.338Z,3.60
2023-02-27T16:42:53.391Z,4.50
2023-02-27T16:45:28.487Z,2.80
2023-02-27T16:48:00.207Z,3.80
2023-02-27T16:50:33.543Z,3.60
2023-02-27T16:53:01.422Z,3.40
2023-02-27T16:55:33.548Z,3.20
2023-02-27T16:58:01.608Z,3.50
2023-02-27T17:00:29.632Z,4.20
2023-02-27T17:02:57.367Z,3.20
2023-02-27T17:05:26.381Z,4.10
2023-02-27T17:07:54.145Z,5.20
2023-02-27T17:10:24.742Z,5.10
2023-02-27T17:12:52.791Z,5.80
2023-02-27T17:15:20.919Z,3.30
2023-02-27T17:17:48.720Z,6.60
2023-02-27T17:20:16.436Z,6.80
2023-02-27T17:22:45.143Z,5.90
2023-02-27T17:25:14.044Z,3.90
2023-02-27T17:27:43.752Z,3.70
2023-02-27T17:30:13.407Z,2.40
2023-02-27T17:32:41.250Z,3.20
2023-02-27T17:35:10.154Z,3.70
2023-02-27T17:37:38.148Z,3.20
2023-02-27T17:40:08.218Z,2.90
2023-02-27T17:42:37.192Z,2.60
2023-02-27T17:45:07.654Z,3.50
2023-02-27T17:47:36.033Z,2.40
2023-02-27T17:50:05.394Z,3.30
2023-02-27T17:52:37.013Z,4.10
2023-02-27T17:55:08.642Z,3.50
2023-02-27T17:57:38.823Z,2.80
2023-02-27T18:00:10.596Z,3.20
2023-02-27T18:02:38.328Z,4.20
2023-02-27T18:05:07.552Z,5.10
2023-02-27T18:07:35.555Z,5.10
2023-02-27T18:10:06.017Z,5.90
2023-02-27T18:12:34.239Z,5.90
2023-02-27T18:15:02.529Z,7.50
2023-02-27T18:17:30.220Z,7.20
2023-02-27T18:19:58.209Z,7.30
2023-02-27T18:22:26.575Z,8.90
2023-02-27T18:24:55.961Z,8.10
2023-02-27T18:27:23.985Z,9.70
2023-02-27T18:29:51.800Z,6.80
2023-02-27T18:32:19.869Z,8.10
2023-02-27T18:34:47.668Z,7.30
2023-02-27T18:37:15.585Z,8.60
2023-02-27T18:39:44.192Z,6.80
2023-02-27T18:42:11.971Z,6.60
2023-02-27T18:44:41.440Z,3.80
2023-02-27T18:47:09.777Z,6.50
2023-02-27T18:49:38.073Z,5.00
2023-02-27T18:52:06.009Z,6.30
2023-02-27T18:54:33.886Z,4.20
2023-02-27T18:57:01.746Z,4.80
2023-02-27T18:59:29.566Z,4.90
2023-02-27T19:01:58.047Z,4.70
2023-02-27T19:04:25.896Z,5.40
2023-02-27T19:06:53.731Z,5.50
2023-02-27T19:09:22.328Z,5.90
2023-02-27T19:11:50.169Z,5.30
2023-02-27T19:14:18.141Z,4.90
2023-02-27T19:16:46.479Z,5.10
2023-02-27T19:19:14.456Z,4.90
2023-02-27T19:21:43.105Z,4.40
2023-02-27T19:24:13.600Z,5.50
2023-02-27T19:26:41.486Z,5.00
2023-02-27T19:29:09.546Z,6.40
2023-02-27T19:31:37.374Z,5.50
2023-02-27T19:34:05.350Z,6.50
2023-02-27T19:36:34.800Z,4.50
2023-02-27T19:39:04.425Z,7.60
2023-02-27T19:41:33.622Z,6.70
2023-02-27T19:44:01.637Z,6.70
2023-02-27T19:46:33.858Z,6.60
2023-02-27T19:49:05.920Z,7.00
2023-02-27T19:51:34.227Z,6.20
2023-02-27T19:54:02.186Z,7.10
2023-02-27T19:56:30.477Z,5.50
2023-02-27T19:59:00.820Z,6.30
2023-02-27T20:01:36.332Z,3.90
2023-02-27T20:04:05.123Z,3.90
2023-02-27T20:06:42.210Z,4.20
2023-02-27T20:09:15.307Z,4.60
2023-02-27T20:11:45.254Z,4.70
2023-02-27T20:14:16.612Z,4.00
2023-02-27T20:16:45.369Z,4.90
2023-02-27T20:19:18.674Z,3.70
2023-02-27T20:21:47.837Z,5.20
2023-02-27T20:24:18.069Z,5.60
2023-02-27T20:26:52.385Z,4.40
2023-02-27T20:29:24.722Z,4.40
2023-02-27T20:31:55.749Z,4.40
2023-02-27T20:34:26.405Z,4.70
2023-02-27T20:36:56.091Z,3.80
2023-02-27T20:39:24.434Z,5.00
2023-02-27T20:41:52.122Z,5.00
2023-02-27T20:44:19.863Z,4.80
2023-02-27T20:46:49.326Z,3.80
2023-02-27T20:49:18.328Z,3.80
2023-02-27T20:51:46.516Z,5.70
2023-02-27T20:54:20.285Z,4.80
2023-02-27T20:56:54.430Z,4.30
2023-02-27T20:59:25.223Z,4.00
2023-02-27T21:01:54.867Z,5.70
2023-02-27T21:04:42.679Z,5.30
2023-02-27T21:07:14.303Z,4.20
2023-02-27T21:09:42.207Z,6.50
2023-02-27T21:12:10.978Z,6.40
2023-02-27T21:14:39.638Z,6.40
2023-02-27T21:17:07.407Z,5.20
2023-02-27T21:19:35.460Z,4.00
2023-02-27T21:22:03.784Z,4.00
2023-02-27T21:24:32.175Z,4.00
2023-02-27T21:26:59.895Z,3.80
2023-02-27T21:29:27.644Z,3.30
2023-02-27T21:31:55.409Z,4.10
2023-02-27T21:34:27.688Z,4.40
2023-02-27T21:36:55.973Z,4.50
2023-02-27T21:39:28.255Z,5.00
2023-02-27T21:41:56.446Z,6.30
2023-02-27T21:44:25.259Z,6.00
2023-02-27T21:46:55.951Z,4.80
2023-02-27T21:49:29.066Z,5.40
2023-02-27T21:51:57.108Z,4.60
2023-02-27T21:54:24.956Z,7.40
2023-02-27T21:56:52.750Z,6.60
2023-02-27T21:59:21.604Z,7.20
2023-02-27T22:01:49.449Z,7.50
2023-02-27T22:04:19.983Z,7.30
2023-02-27T22:06:50.215Z,10.50
2023-02-27T22:09:18.361Z,10.20
2023-02-27T22:11:47.493Z,11.80
2023-02-27T22:14:15.953Z,14.20
2023-02-27T22:16:43.899Z,14.90
2023-02-27T22:19:19.792Z,15.50
2023-02-27T22:21:48.472Z,12.80
2023-02-27T22:24:16.382Z,11.30
2023-02-27T22:26:45.717Z,9.60
2023-02-27T22:29:13.980Z,7.70
2023-02-27T22:31:41.781Z,7.40
2023-02-27T22:34:18.474Z,4.90
2023-02-27T22:36:48.774Z,4.50
2023-02-27T22:39:16.639Z,5.50
2023-02-27T22:41:46.040Z,5.80
2023-02-27T22:44:16.592Z,6.20
2023-02-27T22:46:49.841Z,5.80
2023-02-27T22:49:21.840Z,6.40
2023-02-27T22:51:52.046Z,8.70
2023-02-27T22:54:22.596Z,7.80
2023-02-27T22:56:52.731Z,6.50
2023-02-27T22:59:21.470Z,7.80
2023-02-27T23:01:50.374Z,7.00
2023-02-27T23:04:18.790Z,6.90
2023-02-27T23:06:46.755Z,7.10
2023-02-27T23:09:19.322Z,7.20
2023-02-27T23:11:47.685Z,5.70
2023-02-27T23:14:16.589Z,5.00
2023-02-27T23:16:45.569Z,4.40
2023-02-27T23:19:18.179Z,3.60
2023-02-27T23:21:46.091Z,4.10
2023-02-27T23:24:18.132Z,4.20
2023-02-27T23:26:50.625Z,3.80
2023-02-27T23:29:19.132Z,5.20
2023-02-27T23:31:47.111Z,5.00
2023-02-27T23:34:15.047Z,4.40
2023-02-27T23:36:42.738Z,4.90
2023-02-27T23:39:10.530Z,5.70
2023-02-27T23:41:38.310Z,3.50
2023-02-27T23:44:25.000Z,4.30
2023-02-27T23:46:52.972Z,4.90
2023-02-27T23:49:20.816Z,5.00
2023-02-27T23:51:48.525Z,4.60
2023-02-27T23:54:16.196Z,4.20
2023-02-27T23:56:46.762Z,4.60
2023-02-27T23:59:14.646Z,5.20
